sensor_id;sensor_type;location;lat;lon;timestamp;P1;durP1;ratioP1;P2;durP2;ratioP2
25687;SDS011;17407;51.120;3.702;2023-04-03T00:01:28;9.73;;;6.53;;
25687;SDS011;17407;51.120;3.702;2023-04-03T00:03:54;9.45;;;7.03;;
25687;SDS011;17407;51.120;3.702;2023-04-03T00:06:20;8.90;;;6.10;;
25687;SDS011;17407;51.120;3.702;2023-04-03T00:08:47;8.98;;;6.47;;
25687;SDS011;17407;51.120;3.702;2023-04-03T00:11:13;10.63;;;5.88;;
25687;SDS011;17407;51.120;3.702;2023-04-03T00:13:39;9.07;;;6.35;;
25687;SDS011;17407;51.120;3.702;2023-04-03T00:16:06;7.72;;;5.88;;
25687;SDS011;17407;51.120;3.702;2023-04-03T00:18:32;11.05;;;6.80;;
25687;SDS011;17407;51.120;3.702;2023-04-03T00:20:58;8.38;;;5.93;;
25687;SDS011;17407;51.120;3.702;2023-04-03T00:23:24;12.70;;;7.93;;
25687;SDS011;17407;51.120;3.702;2023-04-03T00:25:50;13.40;;;7.22;;
25687;SDS011;17407;51.120;3.702;2023-04-03T00:28:17;9.90;;;6.75;;
25687;SDS011;17407;51.120;3.702;2023-04-03T00:30:43;10.80;;;7.05;;
25687;SDS011;17407;51.120;3.702;2023-04-03T00:33:10;17.05;;;7.75;;
25687;SDS011;17407;51.120;3.702;2023-04-03T00:35:37;17.17;;;7.30;;
25687;SDS011;17407;51.120;3.702;2023-04-03T00:38:03;12.63;;;7.22;;
25687;SDS011;17407;51.120;3.702;2023-04-03T00:40:32;14.00;;;7.57;;
25687;SDS011;17407;51.120;3.702;2023-04-03T00:43:00;10.80;;;7.18;;
25687;SDS011;17407;51.120;3.702;2023-04-03T00:45:34;11.93;;;7.22;;
25687;SDS011;17407;51.120;3.702;2023-04-03T00:48:05;15.18;;;7.65;;
25687;SDS011;17407;51.120;3.702;2023-04-03T00:50:37;12.88;;;7.20;;
25687;SDS011;17407;51.120;3.702;2023-04-03T00:53:05;10.48;;;7.70;;
25687;SDS011;17407;51.120;3.702;2023-04-03T00:55:32;9.88;;;7.57;;
25687;SDS011;17407;51.120;3.702;2023-04-03T00:58:00;13.00;;;7.80;;
25687;SDS011;17407;51.120;3.702;2023-04-03T01:00:27;12.15;;;7.68;;
25687;SDS011;17407;51.120;3.702;2023-04-03T01:02:53;12.57;;;7.97;;
25687;SDS011;17407;51.120;3.702;2023-04-03T01:05:19;13.70;;;8.73;;
25687;SDS011;17407;51.120;3.702;2023-04-03T01:07:46;12.00;;;8.30;;
25687;SDS011;17407;51.120;3.702;2023-04-03T01:10:14;14.35;;;8.20;;
25687;SDS011;17407;51.120;3.702;2023-04-03T01:12:42;11.63;;;8.10;;
25687;SDS011;17407;51.120;3.702;2023-04-03T01:15:14;10.82;;;7.75;;
25687;SDS011;17407;51.120;3.702;2023-04-03T01:22:57;12.38;;;7.63;;
25687;SDS011;17407;51.120;3.702;2023-04-03T01:25:26;9.80;;;7.75;;
25687;SDS011;17407;51.120;3.702;2023-04-03T01:27:52;10.00;;;7.80;;
25687;SDS011;17407;51.120;3.702;2023-04-03T01:30:19;9.60;;;7.22;;
25687;SDS011;17407;51.120;3.702;2023-04-03T01:32:48;12.30;;;8.07;;
25687;SDS011;17407;51.120;3.702;2023-04-03T01:35:14;17.52;;;8.32;;
25687;SDS011;17407;51.120;3.702;2023-04-03T01:37:40;14.27;;;7.97;;
25687;SDS011;17407;51.120;3.702;2023-04-03T01:40:06;14.85;;;8.65;;
25687;SDS011;17407;51.120;3.702;2023-04-03T01:42:32;13.63;;;8.77;;
25687;SDS011;17407;51.120;3.702;2023-04-03T01:44:57;11.27;;;8.07;;
25687;SDS011;17407;51.120;3.702;2023-04-03T01:47:23;13.13;;;8.43;;
25687;SDS011;17407;51.120;3.702;2023-04-03T01:49:49;12.52;;;8.13;;
25687;SDS011;17407;51.120;3.702;2023-04-03T01:52:15;11.18;;;8.50;;
25687;SDS011;17407;51.120;3.702;2023-04-03T01:59:51;11.07;;;7.97;;
25687;SDS011;17407;51.120;3.702;2023-04-03T02:02:17;15.40;;;9.23;;
25687;SDS011;17407;51.120;3.702;2023-04-03T02:04:45;10.70;;;7.30;;
25687;SDS011;17407;51.120;3.702;2023-04-03T02:07:11;12.00;;;8.50;;
25687;SDS011;17407;51.120;3.702;2023-04-03T02:09:36;11.48;;;8.57;;
25687;SDS011;17407;51.120;3.702;2023-04-03T02:12:02;24.25;;;8.80;;
25687;SDS011;17407;51.120;3.702;2023-04-03T02:14:28;13.65;;;9.52;;
25687;SDS011;17407;51.120;3.702;2023-04-03T02:16:54;13.73;;;8.73;;
25687;SDS011;17407;51.120;3.702;2023-04-03T02:19:20;13.00;;;8.00;;
25687;SDS011;17407;51.120;3.702;2023-04-03T02:21:46;12.68;;;8.63;;
25687;SDS011;17407;51.120;3.702;2023-04-03T02:24:12;16.65;;;8.48;;
25687;SDS011;17407;51.120;3.702;2023-04-03T02:26:38;12.43;;;8.98;;
25687;SDS011;17407;51.120;3.702;2023-04-03T02:29:03;12.75;;;8.23;;
25687;SDS011;17407;51.120;3.702;2023-04-03T02:31:30;10.10;;;7.75;;
25687;SDS011;17407;51.120;3.702;2023-04-03T02:33:56;12.45;;;8.00;;
25687;SDS011;17407;51.120;3.702;2023-04-03T02:36:21;13.35;;;8.93;;
25687;SDS011;17407;51.120;3.702;2023-04-03T02:38:47;12.68;;;8.63;;
25687;SDS011;17407;51.120;3.702;2023-04-03T02:41:13;11.13;;;7.55;;
25687;SDS011;17407;51.120;3.702;2023-04-03T02:43:39;9.55;;;8.05;;
25687;SDS011;17407;51.120;3.702;2023-04-03T02:46:06;14.40;;;8.38;;
25687;SDS011;17407;51.120;3.702;2023-04-03T02:48:32;11.10;;;7.32;;
25687;SDS011;17407;51.120;3.702;2023-04-03T02:50:58;11.80;;;8.40;;
25687;SDS011;17407;51.120;3.702;2023-04-03T02:53:24;12.63;;;7.97;;
25687;SDS011;17407;51.120;3.702;2023-04-03T02:55:50;9.45;;;7.25;;
25687;SDS011;17407;51.120;3.702;2023-04-03T02:58:16;12.65;;;8.23;;
25687;SDS011;17407;51.120;3.702;2023-04-03T03:00:42;12.90;;;7.95;;
25687;SDS011;17407;51.120;3.702;2023-04-03T03:03:08;17.50;;;8.30;;
25687;SDS011;17407;51.120;3.702;2023-04-03T03:05:34;14.20;;;8.30;;
25687;SDS011;17407;51.120;3.702;2023-04-03T03:08:01;12.05;;;7.85;;
25687;SDS011;17407;51.120;3.702;2023-04-03T03:10:27;14.15;;;8.23;;
25687;SDS011;17407;51.120;3.702;2023-04-03T03:12:53;15.23;;;8.30;;
25687;SDS011;17407;51.120;3.702;2023-04-03T03:15:19;11.23;;;7.60;;
25687;SDS011;17407;51.120;3.702;2023-04-03T03:17:45;16.08;;;8.43;;
25687;SDS011;17407;51.120;3.702;2023-04-03T03:20:12;14.07;;;8.02;;
25687;SDS011;17407;51.120;3.702;2023-04-03T03:22:40;12.13;;;8.30;;
25687;SDS011;17407;51.120;3.702;2023-04-03T03:25:09;11.60;;;8.13;;
25687;SDS011;17407;51.120;3.702;2023-04-03T03:27:35;10.55;;;7.63;;
25687;SDS011;17407;51.120;3.702;2023-04-03T03:30:01;14.57;;;7.63;;
25687;SDS011;17407;51.120;3.702;2023-04-03T03:32:26;14.77;;;9.05;;
25687;SDS011;17407;51.120;3.702;2023-04-03T03:34:52;13.02;;;8.20;;
25687;SDS011;17407;51.120;3.702;2023-04-03T03:37:18;14.85;;;8.55;;
25687;SDS011;17407;51.120;3.702;2023-04-03T03:39:44;15.98;;;9.45;;
25687;SDS011;17407;51.120;3.702;2023-04-03T03:42:10;13.73;;;8.77;;
25687;SDS011;17407;51.120;3.702;2023-04-03T03:44:36;15.95;;;9.30;;
25687;SDS011;17407;51.120;3.702;2023-04-03T03:47:02;17.35;;;9.70;;
25687;SDS011;17407;51.120;3.702;2023-04-03T03:49:28;14.80;;;10.15;;
25687;SDS011;17407;51.120;3.702;2023-04-03T03:51:53;19.40;;;11.23;;
25687;SDS011;17407;51.120;3.702;2023-04-03T03:54:20;17.40;;;9.82;;
25687;SDS011;17407;51.120;3.702;2023-04-03T03:56:46;13.98;;;9.65;;
25687;SDS011;17407;51.120;3.702;2023-04-03T03:59:12;14.65;;;9.27;;
25687;SDS011;17407;51.120;3.702;2023-04-03T04:01:37;15.95;;;9.95;;
25687;SDS011;17407;51.120;3.702;2023-04-03T04:04:04;18.10;;;10.35;;
25687;SDS011;17407;51.120;3.702;2023-04-03T04:06:30;14.27;;;9.23;;
25687;SDS011;17407;51.120;3.702;2023-04-03T04:08:58;15.05;;;8.45;;
25687;SDS011;17407;51.120;3.702;2023-04-03T04:11:24;13.65;;;7.95;;
25687;SDS011;17407;51.120;3.702;2023-04-03T04:13:52;13.55;;;7.93;;
25687;SDS011;17407;51.120;3.702;2023-04-03T04:16:17;11.45;;;8.00;;
25687;SDS011;17407;51.120;3.702;2023-04-03T04:18:43;12.23;;;7.95;;
25687;SDS011;17407;51.120;3.702;2023-04-03T04:21:12;12.15;;;8.38;;
25687;SDS011;17407;51.120;3.702;2023-04-03T04:23:38;12.60;;;7.90;;
25687;SDS011;17407;51.120;3.702;2023-04-03T04:26:04;15.32;;;7.82;;
25687;SDS011;17407;51.120;3.702;2023-04-03T04:28:30;12.43;;;7.75;;
25687;SDS011;17407;51.120;3.702;2023-04-03T04:30:56;14.35;;;8.45;;
25687;SDS011;17407;51.120;3.702;2023-04-03T04:33:22;12.25;;;8.35;;
25687;SDS011;17407;51.120;3.702;2023-04-03T04:35:48;13.98;;;8.00;;
25687;SDS011;17407;51.120;3.702;2023-04-03T04:38:14;13.15;;;8.10;;
25687;SDS011;17407;51.120;3.702;2023-04-03T04:40:39;11.50;;;7.57;;
25687;SDS011;17407;51.120;3.702;2023-04-03T04:43:06;10.25;;;7.80;;
25687;SDS011;17407;51.120;3.702;2023-04-03T04:45:32;11.75;;;8.68;;
25687;SDS011;17407;51.120;3.702;2023-04-03T04:47:58;15.70;;;9.02;;
25687;SDS011;17407;51.120;3.702;2023-04-03T04:50:23;15.57;;;9.02;;
25687;SDS011;17407;51.120;3.702;2023-04-03T04:52:49;13.52;;;9.07;;
25687;SDS011;17407;51.120;3.702;2023-04-03T04:55:15;10.30;;;8.80;;
25687;SDS011;17407;51.120;3.702;2023-04-03T04:57:41;12.88;;;8.38;;
25687;SDS011;17407;51.120;3.702;2023-04-03T05:00:07;18.33;;;9.52;;
25687;SDS011;17407;51.120;3.702;2023-04-03T05:02:33;14.68;;;9.07;;
25687;SDS011;17407;51.120;3.702;2023-04-03T05:04:59;15.55;;;9.38;;
25687;SDS011;17407;51.120;3.702;2023-04-03T05:07:24;12.68;;;8.88;;
25687;SDS011;17407;51.120;3.702;2023-04-03T05:09:50;14.15;;;9.10;;
25687;SDS011;17407;51.120;3.702;2023-04-03T05:12:16;14.70;;;9.52;;
25687;SDS011;17407;51.120;3.702;2023-04-03T05:14:42;11.68;;;8.10;;
25687;SDS011;17407;51.120;3.702;2023-04-03T05:17:07;15.68;;;8.93;;
25687;SDS011;17407;51.120;3.702;2023-04-03T05:19:33;14.02;;;10.02;;
25687;SDS011;17407;51.120;3.702;2023-04-03T05:21:59;12.38;;;9.88;;
25687;SDS011;17407;51.120;3.702;2023-04-03T05:24:24;13.23;;;9.55;;
25687;SDS011;17407;51.120;3.702;2023-04-03T05:26:51;17.05;;;10.38;;
25687;SDS011;17407;51.120;3.702;2023-04-03T05:29:16;16.17;;;10.10;;
25687;SDS011;17407;51.120;3.702;2023-04-03T05:31:43;17.52;;;9.80;;
25687;SDS011;17407;51.120;3.702;2023-04-03T05:34:08;13.80;;;10.32;;
25687;SDS011;17407;51.120;3.702;2023-04-03T05:36:34;17.38;;;10.48;;
25687;SDS011;17407;51.120;3.702;2023-04-03T05:39:00;19.50;;;10.70;;
25687;SDS011;17407;51.120;3.702;2023-04-03T05:41:26;14.23;;;10.40;;
25687;SDS011;17407;51.120;3.702;2023-04-03T05:43:51;20.85;;;10.25;;
25687;SDS011;17407;51.120;3.702;2023-04-03T05:46:18;14.10;;;9.77;;
25687;SDS011;17407;51.120;3.702;2023-04-03T05:48:45;21.77;;;11.65;;
25687;SDS011;17407;51.120;3.702;2023-04-03T05:51:15;18.35;;;10.88;;
25687;SDS011;17407;51.120;3.702;2023-04-03T05:53:42;15.25;;;10.82;;
25687;SDS011;17407;51.120;3.702;2023-04-03T05:56:10;17.55;;;10.55;;
25687;SDS011;17407;51.120;3.702;2023-04-03T05:58:36;14.35;;;10.60;;
25687;SDS011;17407;51.120;3.702;2023-04-03T06:01:01;19.08;;;10.82;;
25687;SDS011;17407;51.120;3.702;2023-04-03T06:03:27;16.95;;;10.13;;
25687;SDS011;17407;51.120;3.702;2023-04-03T06:05:53;16.92;;;11.48;;
25687;SDS011;17407;51.120;3.702;2023-04-03T06:08:18;14.93;;;10.43;;
25687;SDS011;17407;51.120;3.702;2023-04-03T06:10:44;17.92;;;10.88;;
25687;SDS011;17407;51.120;3.702;2023-04-03T06:13:10;18.17;;;10.85;;
25687;SDS011;17407;51.120;3.702;2023-04-03T06:15:36;20.60;;;10.18;;
25687;SDS011;17407;51.120;3.702;2023-04-03T06:18:03;18.60;;;10.38;;
25687;SDS011;17407;51.120;3.702;2023-04-03T06:20:28;20.00;;;10.77;;
25687;SDS011;17407;51.120;3.702;2023-04-03T06:22:54;15.93;;;10.95;;
25687;SDS011;17407;51.120;3.702;2023-04-03T06:25:20;17.02;;;11.70;;
25687;SDS011;17407;51.120;3.702;2023-04-03T06:27:46;18.52;;;11.52;;
25687;SDS011;17407;51.120;3.702;2023-04-03T06:30:12;14.98;;;10.77;;
25687;SDS011;17407;51.120;3.702;2023-04-03T06:32:38;19.60;;;11.15;;
25687;SDS011;17407;51.120;3.702;2023-04-03T07:59:37;14.20;;;8.82;;
25687;SDS011;17407;51.120;3.702;2023-04-03T08:23:04;16.63;;;9.65;;
25687;SDS011;17407;51.120;3.702;2023-04-03T08:25:30;15.52;;;9.18;;
25687;SDS011;17407;51.120;3.702;2023-04-03T09:01:40;6.87;;;4.90;;
25687;SDS011;17407;51.120;3.702;2023-04-03T09:23:26;11.95;;;4.40;;
25687;SDS011;17407;51.120;3.702;2023-04-03T09:26:11;8.20;;;4.20;;
25687;SDS011;17407;51.120;3.702;2023-04-03T09:28:44;6.60;;;3.85;;
25687;SDS011;17407;51.120;3.702;2023-04-03T09:31:54;5.20;;;3.55;;
25687;SDS011;17407;51.120;3.702;2023-04-03T09:34:23;9.57;;;3.67;;
25687;SDS011;17407;51.120;3.702;2023-04-03T09:36:53;8.60;;;4.05;;
25687;SDS011;17407;51.120;3.702;2023-04-03T09:39:22;7.25;;;3.35;;
25687;SDS011;17407;51.120;3.702;2023-04-03T09:42:32;3.42;;;3.13;;
25687;SDS011;17407;51.120;3.702;2023-04-03T09:45:21;6.90;;;3.13;;
25687;SDS011;17407;51.120;3.702;2023-04-03T09:47:47;7.85;;;3.70;;
25687;SDS011;17407;51.120;3.702;2023-04-03T09:52:43;7.75;;;3.28;;
25687;SDS011;17407;51.120;3.702;2023-04-03T09:55:15;7.93;;;2.78;;
25687;SDS011;17407;51.120;3.702;2023-04-03T09:57:41;10.20;;;3.60;;
25687;SDS011;17407;51.120;3.702;2023-04-03T10:00:27;6.05;;;2.95;;
25687;SDS011;17407;51.120;3.702;2023-04-03T10:02:57;6.25;;;3.00;;
25687;SDS011;17407;51.120;3.702;2023-04-03T10:05:40;5.63;;;3.47;;
25687;SDS011;17407;51.120;3.702;2023-04-03T10:10:39;8.15;;;3.17;;
25687;SDS011;17407;51.120;3.702;2023-04-03T10:13:19;9.52;;;3.38;;
25687;SDS011;17407;51.120;3.702;2023-04-03T10:15:50;6.53;;;3.33;;
25687;SDS011;17407;51.120;3.702;2023-04-03T10:18:38;9.50;;;3.45;;
25687;SDS011;17407;51.120;3.702;2023-04-03T10:21:13;4.65;;;3.33;;
25687;SDS011;17407;51.120;3.702;2023-04-03T10:23:49;8.35;;;2.92;;
25687;SDS011;17407;51.120;3.702;2023-04-03T10:31:53;8.60;;;3.20;;
25687;SDS011;17407;51.120;3.702;2023-04-03T10:34:37;9.32;;;3.92;;
25687;SDS011;17407;51.120;3.702;2023-04-03T10:37:44;4.72;;;2.95;;
25687;SDS011;17407;51.120;3.702;2023-04-03T10:40:24;4.13;;;2.72;;
25687;SDS011;17407;51.120;3.702;2023-04-03T10:48:38;4.57;;;2.78;;
25687;SDS011;17407;51.120;3.702;2023-04-03T10:51:29;6.20;;;2.80;;
25687;SDS011;17407;51.120;3.702;2023-04-03T10:59:38;5.72;;;2.85;;
25687;SDS011;17407;51.120;3.702;2023-04-03T11:02:06;7.57;;;2.70;;
25687;SDS011;17407;51.120;3.702;2023-04-03T11:04:48;7.55;;;3.05;;
25687;SDS011;17407;51.120;3.702;2023-04-03T11:07:19;6.00;;;3.08;;
25687;SDS011;17407;51.120;3.702;2023-04-03T11:09:50;6.38;;;3.15;;
25687;SDS011;17407;51.120;3.702;2023-04-03T11:12:35;7.22;;;2.80;;
25687;SDS011;17407;51.120;3.702;2023-04-03T11:15:11;4.90;;;2.67;;
25687;SDS011;17407;51.120;3.702;2023-04-03T11:17:51;4.93;;;2.63;;
25687;SDS011;17407;51.120;3.702;2023-04-03T11:20:40;8.30;;;2.45;;
25687;SDS011;17407;51.120;3.702;2023-04-03T11:23:28;4.45;;;2.30;;
25687;SDS011;17407;51.120;3.702;2023-04-03T11:26:13;6.18;;;2.65;;
25687;SDS011;17407;51.120;3.702;2023-04-03T11:28:41;5.63;;;2.65;;
25687;SDS011;17407;51.120;3.702;2023-04-03T11:31:29;4.60;;;2.20;;
25687;SDS011;17407;51.120;3.702;2023-04-03T11:36:59;5.57;;;2.70;;
25687;SDS011;17407;51.120;3.702;2023-04-03T11:39:29;4.13;;;2.72;;
25687;SDS011;17407;51.120;3.702;2023-04-03T11:44:49;7.47;;;3.20;;
25687;SDS011;17407;51.120;3.702;2023-04-03T11:47:43;5.72;;;2.75;;
25687;SDS011;17407;51.120;3.702;2023-04-03T11:55:44;5.00;;;2.70;;
25687;SDS011;17407;51.120;3.702;2023-04-03T11:58:18;3.60;;;2.50;;
25687;SDS011;17407;51.120;3.702;2023-04-03T12:00:49;4.65;;;2.40;;
25687;SDS011;17407;51.120;3.702;2023-04-03T12:45:43;7.03;;;2.55;;
25687;SDS011;17407;51.120;3.702;2023-04-03T12:48:14;4.53;;;2.30;;
25687;SDS011;17407;51.120;3.702;2023-04-03T12:50:47;3.92;;;2.35;;
25687;SDS011;17407;51.120;3.702;2023-04-03T12:53:18;6.28;;;1.98;;
25687;SDS011;17407;51.120;3.702;2023-04-03T12:55:47;3.35;;;2.10;;
25687;SDS011;17407;51.120;3.702;2023-04-03T12:58:22;3.75;;;1.90;;
25687;SDS011;17407;51.120;3.702;2023-04-03T13:01:03;5.10;;;2.22;;
25687;SDS011;17407;51.120;3.702;2023-04-03T13:03:49;4.43;;;2.00;;
25687;SDS011;17407;51.120;3.702;2023-04-03T13:06:19;5.95;;;2.38;;
25687;SDS011;17407;51.120;3.702;2023-04-03T13:09:00;4.18;;;2.05;;
25687;SDS011;17407;51.120;3.702;2023-04-03T13:11:36;4.85;;;3.10;;
25687;SDS011;17407;51.120;3.702;2023-04-03T13:14:12;4.05;;;2.08;;
25687;SDS011;17407;51.120;3.702;2023-04-03T13:16:41;1.98;;;1.70;;
25687;SDS011;17407;51.120;3.702;2023-04-03T13:19:17;3.15;;;1.98;;
25687;SDS011;17407;51.120;3.702;2023-04-03T13:21:43;4.72;;;2.40;;
25687;SDS011;17407;51.120;3.702;2023-04-03T13:24:10;4.50;;;2.15;;
25687;SDS011;17407;51.120;3.702;2023-04-03T13:26:36;2.28;;;1.92;;
25687;SDS011;17407;51.120;3.702;2023-04-03T13:29:04;4.55;;;2.13;;
25687;SDS011;17407;51.120;3.702;2023-04-03T13:31:36;6.15;;;1.90;;
25687;SDS011;17407;51.120;3.702;2023-04-03T13:34:05;6.03;;;1.95;;
25687;SDS011;17407;51.120;3.702;2023-04-03T13:36:36;6.38;;;2.00;;
25687;SDS011;17407;51.120;3.702;2023-04-03T13:39:19;3.90;;;2.05;;
25687;SDS011;17407;51.120;3.702;2023-04-03T13:41:52;6.70;;;2.25;;
25687;SDS011;17407;51.120;3.702;2023-04-03T13:49:43;2.53;;;1.77;;
25687;SDS011;17407;51.120;3.702;2023-04-03T13:52:21;2.35;;;1.90;;
25687;SDS011;17407;51.120;3.702;2023-04-03T13:55:02;4.13;;;2.20;;
25687;SDS011;17407;51.120;3.702;2023-04-03T13:57:50;3.50;;;1.95;;
25687;SDS011;17407;51.120;3.702;2023-04-03T14:00:26;2.95;;;1.75;;
25687;SDS011;17407;51.120;3.702;2023-04-03T14:02:54;2.60;;;1.80;;
25687;SDS011;17407;51.120;3.702;2023-04-03T14:05:22;4.80;;;2.10;;
25687;SDS011;17407;51.120;3.702;2023-04-03T14:07:50;4.82;;;1.70;;
25687;SDS011;17407;51.120;3.702;2023-04-03T14:10:16;7.40;;;1.85;;
25687;SDS011;17407;51.120;3.702;2023-04-03T14:12:42;3.25;;;2.28;;
25687;SDS011;17407;51.120;3.702;2023-04-03T14:15:24;3.10;;;2.03;;
25687;SDS011;17407;51.120;3.702;2023-04-03T14:17:53;6.38;;;3.45;;
25687;SDS011;17407;51.120;3.702;2023-04-03T14:20:21;7.93;;;2.42;;
25687;SDS011;17407;51.120;3.702;2023-04-03T14:22:49;3.63;;;1.90;;
25687;SDS011;17407;51.120;3.702;2023-04-03T14:25:16;1.95;;;1.67;;
25687;SDS011;17407;51.120;3.702;2023-04-03T14:27:44;5.45;;;1.95;;
25687;SDS011;17407;51.120;3.702;2023-04-03T14:30:25;4.00;;;1.98;;
25687;SDS011;17407;51.120;3.702;2023-04-03T14:32:53;2.15;;;1.75;;
25687;SDS011;17407;51.120;3.702;2023-04-03T14:35:19;2.97;;;2.00;;
25687;SDS011;17407;51.120;3.702;2023-04-03T14:37:46;3.25;;;1.85;;
25687;SDS011;17407;51.120;3.702;2023-04-03T14:40:12;3.10;;;1.65;;
25687;SDS011;17407;51.120;3.702;2023-04-03T14:42:41;2.30;;;2.00;;
25687;SDS011;17407;51.120;3.702;2023-04-03T14:45:09;5.00;;;2.30;;
25687;SDS011;17407;51.120;3.702;2023-04-03T14:47:39;2.35;;;1.85;;
25687;SDS011;17407;51.120;3.702;2023-04-03T14:50:11;4.60;;;2.20;;
25687;SDS011;17407;51.120;3.702;2023-04-03T14:52:39;4.65;;;2.00;;
25687;SDS011;17407;51.120;3.702;2023-04-03T14:55:06;3.35;;;1.92;;
25687;SDS011;17407;51.120;3.702;2023-04-03T14:57:32;2.67;;;1.77;;
25687;SDS011;17407;51.120;3.702;2023-04-03T14:59:58;3.45;;;1.83;;
25687;SDS011;17407;51.120;3.702;2023-04-03T15:02:30;1.95;;;1.65;;
25687;SDS011;17407;51.120;3.702;2023-04-03T15:04:58;5.43;;;2.00;;
25687;SDS011;17407;51.120;3.702;2023-04-03T15:07:25;3.13;;;2.20;;
25687;SDS011;17407;51.120;3.702;2023-04-03T15:09:53;6.85;;;1.80;;
25687;SDS011;17407;51.120;3.702;2023-04-03T15:12:21;2.92;;;1.85;;
25687;SDS011;17407;51.120;3.702;2023-04-03T15:14:47;4.57;;;1.83;;
25687;SDS011;17407;51.120;3.702;2023-04-03T15:17:17;2.13;;;1.83;;
25687;SDS011;17407;51.120;3.702;2023-04-03T15:19:46;2.67;;;1.70;;
25687;SDS011;17407;51.120;3.702;2023-04-03T15:22:15;4.45;;;2.00;;
25687;SDS011;17407;51.120;3.702;2023-04-03T15:24:43;5.78;;;1.98;;
25687;SDS011;17407;51.120;3.702;2023-04-03T15:27:09;3.75;;;1.80;;
25687;SDS011;17407;51.120;3.702;2023-04-03T15:29:37;3.40;;;1.60;;
25687;SDS011;17407;51.120;3.702;2023-04-03T15:32:04;4.50;;;1.90;;
25687;SDS011;17407;51.120;3.702;2023-04-03T15:34:30;5.30;;;2.10;;
25687;SDS011;17407;51.120;3.702;2023-04-03T15:36:56;4.93;;;1.60;;
25687;SDS011;17407;51.120;3.702;2023-04-03T15:39:21;1.88;;;1.70;;
25687;SDS011;17407;51.120;3.702;2023-04-03T15:41:48;4.15;;;1.85;;
25687;SDS011;17407;51.120;3.702;2023-04-03T15:44:14;6.05;;;1.83;;
25687;SDS011;17407;51.120;3.702;2023-04-03T15:46:42;2.28;;;1.77;;
25687;SDS011;17407;51.120;3.702;2023-04-03T15:49:09;6.72;;;1.80;;
25687;SDS011;17407;51.120;3.702;2023-04-03T15:51:35;6.05;;;1.80;;
25687;SDS011;17407;51.120;3.702;2023-04-03T15:54:01;3.13;;;1.85;;
25687;SDS011;17407;51.120;3.702;2023-04-03T15:56:26;1.50;;;1.40;;
25687;SDS011;17407;51.120;3.702;2023-04-03T15:58:52;4.18;;;1.48;;
25687;SDS011;17407;51.120;3.702;2023-04-03T16:01:18;1.58;;;1.48;;
25687;SDS011;17407;51.120;3.702;2023-04-03T16:03:43;2.35;;;1.70;;
25687;SDS011;17407;51.120;3.702;2023-04-03T16:06:10;3.95;;;1.60;;
25687;SDS011;17407;51.120;3.702;2023-04-03T16:08:37;4.03;;;1.52;;
25687;SDS011;17407;51.120;3.702;2023-04-03T16:11:03;4.65;;;1.65;;
25687;SDS011;17407;51.120;3.702;2023-04-03T16:13:29;3.72;;;1.73;;
25687;SDS011;17407;51.120;3.702;2023-04-03T16:15:55;2.65;;;1.40;;
25687;SDS011;17407;51.120;3.702;2023-04-03T16:18:21;5.32;;;1.75;;
25687;SDS011;17407;51.120;3.702;2023-04-03T16:20:47;5.75;;;1.92;;
25687;SDS011;17407;51.120;3.702;2023-04-03T16:23:13;1.70;;;1.40;;
25687;SDS011;17407;51.120;3.702;2023-04-03T16:25:38;4.45;;;1.67;;
25687;SDS011;17407;51.120;3.702;2023-04-03T16:28:04;6.88;;;2.03;;
25687;SDS011;17407;51.120;3.702;2023-04-03T16:30:32;3.95;;;1.50;;
25687;SDS011;17407;51.120;3.702;2023-04-03T16:32:58;2.38;;;1.75;;
25687;SDS011;17407;51.120;3.702;2023-04-03T16:35:24;3.00;;;2.03;;
25687;SDS011;17407;51.120;3.702;2023-04-03T16:37:50;7.35;;;1.85;;
25687;SDS011;17407;51.120;3.702;2023-04-03T16:40:15;4.18;;;1.80;;
25687;SDS011;17407;51.120;3.702;2023-04-03T16:42:41;5.10;;;1.73;;
25687;SDS011;17407;51.120;3.702;2023-04-03T16:45:07;4.32;;;2.20;;
25687;SDS011;17407;51.120;3.702;2023-04-03T16:47:33;3.05;;;2.17;;
25687;SDS011;17407;51.120;3.702;2023-04-03T16:49:59;4.30;;;1.95;;
25687;SDS011;17407;51.120;3.702;2023-04-03T16:52:25;5.97;;;3.15;;
25687;SDS011;17407;51.120;3.702;2023-04-03T16:54:50;2.35;;;1.95;;
25687;SDS011;17407;51.120;3.702;2023-04-03T16:57:20;3.53;;;1.88;;
25687;SDS011;17407;51.120;3.702;2023-04-03T16:59:47;4.53;;;1.80;;
25687;SDS011;17407;51.120;3.702;2023-04-03T17:02:12;4.03;;;1.83;;
25687;SDS011;17407;51.120;3.702;2023-04-03T17:04:38;4.38;;;1.70;;
25687;SDS011;17407;51.120;3.702;2023-04-03T17:07:04;1.88;;;1.63;;
25687;SDS011;17407;51.120;3.702;2023-04-03T17:09:31;4.45;;;1.77;;
25687;SDS011;17407;51.120;3.702;2023-04-03T17:11:58;5.32;;;1.90;;
25687;SDS011;17407;51.120;3.702;2023-04-03T17:14:23;3.40;;;2.05;;
25687;SDS011;17407;51.120;3.702;2023-04-03T17:16:49;3.20;;;1.83;;
25687;SDS011;17407;51.120;3.702;2023-04-03T17:19:15;4.00;;;1.70;;
25687;SDS011;17407;51.120;3.702;2023-04-03T17:21:42;5.95;;;1.95;;
25687;SDS011;17407;51.120;3.702;2023-04-03T17:24:08;3.80;;;1.92;;
25687;SDS011;17407;51.120;3.702;2023-04-03T17:26:37;5.28;;;2.30;;
25687;SDS011;17407;51.120;3.702;2023-04-03T17:29:05;2.97;;;1.80;;
25687;SDS011;17407;51.120;3.702;2023-04-03T17:31:31;5.25;;;2.22;;
25687;SDS011;17407;51.120;3.702;2023-04-03T17:33:57;3.58;;;2.40;;
25687;SDS011;17407;51.120;3.702;2023-04-03T17:36:26;3.45;;;1.83;;
25687;SDS011;17407;51.120;3.702;2023-04-03T17:38:53;9.05;;;2.25;;
25687;SDS011;17407;51.120;3.702;2023-04-03T17:41:18;9.10;;;2.03;;
25687;SDS011;17407;51.120;3.702;2023-04-03T17:43:46;4.18;;;1.95;;
25687;SDS011;17407;51.120;3.702;2023-04-03T17:46:11;5.28;;;1.90;;
25687;SDS011;17407;51.120;3.702;2023-04-03T17:48:38;4.03;;;2.10;;
25687;SDS011;17407;51.120;3.702;2023-04-03T17:51:09;5.13;;;1.80;;
25687;SDS011;17407;51.120;3.702;2023-04-03T17:53:36;5.28;;;2.15;;
25687;SDS011;17407;51.120;3.702;2023-04-03T17:58:55;6.50;;;2.28;;
25687;SDS011;17407;51.120;3.702;2023-04-03T18:01:25;7.45;;;2.67;;
25687;SDS011;17407;51.120;3.702;2023-04-03T18:03:57;4.07;;;2.88;;
25687;SDS011;17407;51.120;3.702;2023-04-03T18:06:29;6.45;;;3.00;;
25687;SDS011;17407;51.120;3.702;2023-04-03T18:08:58;4.93;;;2.58;;
25687;SDS011;17407;51.120;3.702;2023-04-03T18:11:28;5.32;;;2.70;;
25687;SDS011;17407;51.120;3.702;2023-04-03T18:13:56;6.10;;;2.33;;
25687;SDS011;17407;51.120;3.702;2023-04-03T18:16:24;5.82;;;2.83;;
25687;SDS011;17407;51.120;3.702;2023-04-03T18:18:50;5.80;;;2.90;;
25687;SDS011;17407;51.120;3.702;2023-04-03T18:21:15;3.55;;;2.50;;
25687;SDS011;17407;51.120;3.702;2023-04-03T18:23:43;4.18;;;2.60;;
25687;SDS011;17407;51.120;3.702;2023-04-03T18:26:13;6.47;;;2.67;;
25687;SDS011;17407;51.120;3.702;2023-04-03T18:28:40;4.43;;;3.22;;
25687;SDS011;17407;51.120;3.702;2023-04-03T18:31:08;8.38;;;2.70;;
25687;SDS011;17407;51.120;3.702;2023-04-03T18:33:40;4.60;;;3.13;;
25687;SDS011;17407;51.120;3.702;2023-04-03T18:36:06;7.20;;;2.85;;
25687;SDS011;17407;51.120;3.702;2023-04-03T18:38:32;6.82;;;3.08;;
25687;SDS011;17407;51.120;3.702;2023-04-03T18:40:57;4.70;;;2.78;;
25687;SDS011;17407;51.120;3.702;2023-04-03T18:43:26;6.22;;;2.80;;
25687;SDS011;17407;51.120;3.702;2023-04-03T18:45:52;6.88;;;3.63;;
25687;SDS011;17407;51.120;3.702;2023-04-03T18:48:19;6.53;;;2.90;;
25687;SDS011;17407;51.120;3.702;2023-04-03T18:50:45;8.07;;;2.90;;
25687;SDS011;17407;51.120;3.702;2023-04-03T18:53:11;7.35;;;2.75;;
25687;SDS011;17407;51.120;3.702;2023-04-03T18:55:37;4.32;;;2.28;;
25687;SDS011;17407;51.120;3.702;2023-04-03T18:58:03;6.53;;;3.20;;
25687;SDS011;17407;51.120;3.702;2023-04-03T19:00:28;4.65;;;2.83;;
25687;SDS011;17407;51.120;3.702;2023-04-03T19:02:55;4.90;;;2.90;;